Time;durP1;ratioP1;P1;durP2;ratioP2;P2;SDS_P1;SDS_P2;PMS_P1;PMS_P2;Temp;Humidity;BMP_temperature;BMP_pressure;BME280_temperature;BME280_humidity;BME280_pressure;Samples;Min_cycle;Max_cycle;Signal;HPM_P1;HPM_P2
2021/08/03 00:01:04;;;;;;;16.73;11.00;;;;;;;;;;3560061;40;20421;-73
2021/08/03 00:03:59;;;;;;;16.57;9.93;;;;;;;;;;3569415;40;20610;-73
2021/08/03 00:06:26;;;;;;;14.30;10.80;;;;;;;;;;3555091;40;20462;-73
2021/08/03 00:08:56;;;;;;;13.70;10.30;;;;;;;;;;3557160;40;20422;-73
2021/08/03 00:11:24;;;;;;;14.00;10.60;;;;;;;;;;3556655;40;21622;-74
2021/08/03 00:13:50;;;;;;;15.87;10.80;;;;;;;;;;3556916;40;20421;-73
2021/08/03 00:16:16;;;;;;;12.00;10.80;;;;;;;;;;3556922;40;20449;-75
2021/08/03 00:18:43;;;;;;;14.60;11.17;;;;;;;;;;3555797;40;20917;-74
2021/08/03 00:21:13;;;;;;;15.73;11.30;;;;;;;;;;3555789;40;20402;-73
2021/08/03 00:23:42;;;;;;;15.50;12.63;;;;;;;;;;3555419;40;20423;-73
2021/08/03 00:26:12;;;;;;;12.13;10.40;;;;;;;;;;3555821;40;20812;-73
2021/08/03 00:28:38;;;;;;;15.23;12.73;;;;;;;;;;3556520;40;20392;-73
2021/08/03 00:31:05;;;;;;;12.00;10.70;;;;;;;;;;3556432;40;20399;-73
2021/08/03 00:33:31;;;;;;;13.33;11.67;;;;;;;;;;3557029;40;20622;-73
2021/08/03 00:35:58;;;;;;;12.43;11.10;;;;;;;;;;3555894;40;21201;-73
2021/08/03 00:38:24;;;;;;;13.47;11.87;;;;;;;;;;3548541;40;20404;-74
2021/08/03 00:41:00;;;;;;;14.23;10.27;;;;;;;;;;3553785;40;20438;-73
2021/08/03 00:43:27;;;;;;;16.60;13.40;;;;;;;;;;3566240;40;20526;-73
2021/08/03 00:45:53;;;;;;;12.70;11.40;;;;;;;;;;3568653;40;20410;-75
2021/08/03 00:48:19;;;;;;;17.90;13.20;;;;;;;;;;3559044;40;20401;-73
2021/08/03 00:50:45;;;;;;;16.90;13.43;;;;;;;;;;3569974;40;20413;-74
2021/08/03 00:53:12;;;;;;;17.90;13.77;;;;;;;;;;3567241;40;20418;-74
2021/08/03 00:55:38;;;;;;;18.77;13.77;;;;;;;;;;3561294;40;20430;-74
2021/08/03 00:58:05;;;;;;;17.40;14.30;;;;;;;;;;3558586;40;20390;-75
2021/08/03 01:00:31;;;;;;;17.17;15.30;;;;;;;;;;3561678;40;20833;-75
2021/08/03 01:02:58;;;;;;;22.40;14.47;;;;;;;;;;3646817;23;20472;-80
2021/08/03 01:05:25;;;;;;;19.30;15.63;;;;;;;;;;3572182;39;20420;-80
2021/08/03 01:08:06;;;;;;;17.17;14.87;;;;;;;;;;3572400;40;20486;-80
2021/08/03 01:10:35;;;;;;;15.70;13.60;;;;;;;;;;3571770;40;20412;-80
2021/08/03 01:13:34;;;;;;;18.47;14.30;;;;;;;;;;3573014;40;20518;-80
2021/08/03 01:16:07;;;;;;;17.10;13.70;;;;;;;;;;3555231;40;20471;-79
2021/08/03 01:18:41;;;;;;;17.57;14.00;;;;;;;;;;3542714;40;20414;-79
2021/08/03 01:21:21;;;;;;;14.83;13.00;;;;;;;;;;3560758;40;20418;-80
2021/08/03 01:23:47;;;;;;;18.53;14.33;;;;;;;;;;3559119;40;20418;-80
2021/08/03 01:26:14;;;;;;;17.60;13.10;;;;;;;;;;3560156;40;21113;-80
2021/08/03 01:28:43;;;;;;;19.23;14.40;;;;;;;;;;3560572;40;20395;-80
2021/08/03 01:31:15;;;;;;;17.40;14.30;;;;;;;;;;3558610;40;20546;-79
2021/08/03 01:33:45;;;;;;;20.70;15.40;;;;;;;;;;3550269;40;20423;-80
2021/08/03 01:36:12;;;;;;;21.03;15.00;;;;;;;;;;3550847;40;20428;-80
2021/08/03 01:38:41;;;;;;;22.30;14.50;;;;;;;;;;3550794;40;20513;-80
2021/08/03 01:41:09;;;;;;;16.60;14.77;;;;;;;;;;3560017;40;20704;-80
2021/08/03 01:43:36;;;;;;;19.33;15.17;;;;;;;;;;3551195;40;20434;-80
2021/08/03 01:46:03;;;;;;;20.60;15.20;;;;;;;;;;3551727;40;20465;-80
2021/08/03 01:48:30;;;;;;;17.93;14.97;;;;;;;;;;3552308;40;21071;-80
2021/08/03 01:50:56;;;;;;;24.67;13.87;;;;;;;;;;3556520;40;20929;-79
2021/08/03 01:53:24;;;;;;;20.13;13.47;;;;;;;;;;3581666;39;20471;-80
2021/08/03 01:55:51;;;;;;;16.87;14.30;;;;;;;;;;3582886;39;20412;-79
2021/08/03 01:58:17;;;;;;;20.37;13.47;;;;;;;;;;3572781;39;20384;-80
2021/08/03 02:00:44;;;;;;;18.03;12.80;;;;;;;;;;3581187;39;20460;-80
2021/08/03 02:03:11;;;;;;;14.67;13.17;;;;;;;;;;3587409;39;20546;-79
2021/08/03 02:05:38;;;;;;;15.50;12.27;;;;;;;;;;3590955;39;20464;-78
2021/08/03 02:08:06;;;;;;;18.83;15.30;;;;;;;;;;3582512;39;20443;-79
2021/08/03 02:10:32;;;;;;;18.03;15.07;;;;;;;;;;3592861;39;20428;-79
2021/08/03 02:12:59;;;;;;;16.20;14.33;;;;;;;;;;3591729;39;20482;-79
2021/08/03 02:15:25;;;;;;;17.77;15.50;;;;;;;;;;3574976;39;20454;-78
2021/08/03 02:17:51;;;;;;;16.63;12.83;;;;;;;;;;3593256;39;20384;-79
2021/08/03 02:20:18;;;;;;;16.70;14.70;;;;;;;;;;3583199;39;20412;-79
2021/08/03 02:22:45;;;;;;;21.37;15.60;;;;;;;;;;3574623;39;20764;-79
2021/08/03 02:25:12;;;;;;;18.70;15.83;;;;;;;;;;3593224;39;20407;-78
2021/08/03 02:27:38;;;;;;;17.43;15.53;;;;;;;;;;3582252;39;21097;-79
2021/08/03 02:30:05;;;;;;;19.57;14.30;;;;;;;;;;3580389;39;20895;-79
2021/08/03 02:32:34;;;;;;;27.97;17.77;;;;;;;;;;3582616;39;20731;-79
2021/08/03 02:35:08;;;;;;;16.87;13.60;;;;;;;;;;3583195;39;20415;-79
2021/08/03 02:37:36;;;;;;;16.20;14.00;;;;;;;;;;3590256;39;20685;-78
2021/08/03 02:40:03;;;;;;;22.50;15.30;;;;;;;;;;3573678;39;20416;-79
2021/08/03 02:42:30;;;;;;;23.23;15.00;;;;;;;;;;3582625;39;20420;-79
2021/08/03 02:45:00;;;;;;;17.53;14.30;;;;;;;;;;3582533;39;20499;-79
2021/08/03 02:47:30;;;;;;;20.53;15.43;;;;;;;;;;3582556;39;20387;-78
2021/08/03 02:50:06;;;;;;;19.23;15.23;;;;;;;;;;3591314;39;20477;-78
2021/08/03 02:52:33;;;;;;;18.27;14.30;;;;;;;;;;3583825;39;21615;-78
2021/08/03 02:55:21;;;;;;;18.97;15.80;;;;;;;;;;3592712;39;21121;-77
2021/08/03 02:57:51;;;;;;;17.83;14.13;;;;;;;;;;3538877;40;20401;-80
2021/08/03 03:00:18;;;;;;;14.60;13.10;;;;;;;;;;3524985;40;20410;-79
2021/08/03 03:02:44;;;;;;;20.50;17.00;;;;;;;;;;3530383;40;20465;-78
2021/08/03 03:05:19;;;;;;;15.63;14.00;;;;;;;;;;3527803;40;20423;-79
2021/08/03 03:07:51;;;;;;;17.50;15.23;;;;;;;;;;3540467;40;20402;-79
2021/08/03 03:10:21;;;;;;;17.57;15.10;;;;;;;;;;3540258;40;20471;-79
2021/08/03 03:12:56;;;;;;;23.67;16.53;;;;;;;;;;3540968;40;20508;-79
2021/08/03 03:15:24;;;;;;;19.27;15.93;;;;;;;;;;3523447;40;20847;-79
2021/08/03 03:17:51;;;;;;;17.77;15.87;;;;;;;;;;3532771;40;20440;-79
2021/08/03 03:20:18;;;;;;;25.70;15.47;;;;;;;;;;3523851;40;20423;-79
2021/08/03 03:22:45;;;;;;;18.67;14.57;;;;;;;;;;3531509;40;20412;-79
2021/08/03 03:25:15;;;;;;;15.90;13.80;;;;;;;;;;3540136;40;20401;-79
2021/08/03 03:27:42;;;;;;;19.93;14.60;;;;;;;;;;3525010;40;20427;-79
2021/08/03 03:30:13;;;;;;;19.40;14.87;;;;;;;;;;3541040;40;20564;-79
2021/08/03 03:32:40;;;;;;;18.13;13.83;;;;;;;;;;3531146;40;20424;-79
2021/08/03 03:35:07;;;;;;;18.70;15.57;;;;;;;;;;3561788;39;20514;-79
2021/08/03 03:37:34;;;;;;;17.20;14.97;;;;;;;;;;3592608;39;20434;-79
2021/08/03 03:40:00;;;;;;;18.90;15.30;;;;;;;;;;3576652;39;20411;-79
2021/08/03 03:42:29;;;;;;;22.40;16.10;;;;;;;;;;3576260;39;20395;-79
2021/08/03 03:44:56;;;;;;;20.30;15.40;;;;;;;;;;3575003;39;20430;-79
2021/08/03 03:47:26;;;;;;;18.60;15.90;;;;;;;;;;3586335;39;20711;-79
2021/08/03 03:49:57;;;;;;;22.30;17.30;;;;;;;;;;3587319;39;20400;-79
2021/08/03 03:52:24;;;;;;;21.30;16.57;;;;;;;;;;3582972;39;20423;-79
2021/08/03 03:54:52;;;;;;;17.30;15.50;;;;;;;;;;3584608;39;20424;-79
2021/08/03 03:57:21;;;;;;;22.57;17.10;;;;;;;;;;3574943;39;20701;-80
2021/08/03 03:59:49;;;;;;;19.27;15.27;;;;;;;;;;3584685;39;20784;-80
2021/08/03 04:02:19;;;;;;;16.77;14.93;;;;;;;;;;3582360;39;20455;-80
2021/08/03 04:04:45;;;;;;;18.47;15.20;;;;;;;;;;3584409;39;20432;-78
2021/08/03 04:07:11;;;;;;;20.30;16.40;;;;;;;;;;3583828;39;20449;-79
2021/08/03 04:09:38;;;;;;;18.20;15.93;;;;;;;;;;3594763;39;21155;-78
2021/08/03 04:12:22;;;;;;;20.17;14.40;;;;;;;;;;3583398;39;20418;-78
2021/08/03 04:14:49;;;;;;;18.40;14.13;;;;;;;;;;3586901;39;20541;-79
2021/08/03 04:17:16;;;;;;;17.23;14.97;;;;;;;;;;3573819;39;20396;-79
2021/08/03 04:19:44;;;;;;;21.13;13.27;;;;;;;;;;3573644;39;20526;-78
2021/08/03 04:22:10;;;;;;;17.67;14.60;;;;;;;;;;3582728;39;20824;-79
2021/08/03 04:24:37;;;;;;;16.00;13.90;;;;;;;;;;3574285;39;20415;-79
2021/08/03 04:27:04;;;;;;;17.13;14.13;;;;;;;;;;3593158;39;20709;-80
2021/08/03 04:29:31;;;;;;;17.47;14.20;;;;;;;;;;3584936;39;20412;-80
2021/08/03 04:31:57;;;;;;;18.03;14.27;;;;;;;;;;3584439;39;20533;-80
2021/08/03 04:34:31;;;;;;;23.93;14.20;;;;;;;;;;3569238;39;20423;-80
2021/08/03 04:36:58;;;;;;;16.93;13.33;;;;;;;;;;3585532;39;20387;-80
2021/08/03 04:39:26;;;;;;;24.83;15.53;;;;;;;;;;3586203;39;20400;-80
2021/08/03 04:44:57;;;;;;;18.50;13.40;;;;;;;;;;3594594;39;20419;-81
2021/08/03 04:47:29;;;;;;;23.80;16.20;;;;;;;;;;3583568;39;20791;-81
2021/08/03 04:49:57;;;;;;;15.37;13.87;;;;;;;;;;3584628;39;20423;-79
2021/08/03 04:52:23;;;;;;;15.77;13.47;;;;;;;;;;3592989;39;20416;-79
2021/08/03 04:54:49;;;;;;;18.97;14.13;;;;;;;;;;3575450;39;20412;-80
2021/08/03 04:57:16;;;;;;;21.20;14.63;;;;;;;;;;3575445;39;20407;-80
2021/08/03 04:59:45;;;;;;;22.03;15.53;;;;;;;;;;3576113;39;20702;-80
2021/08/03 05:02:11;;;;;;;19.50;15.47;;;;;;;;;;3586157;39;20410;-80
2021/08/03 05:04:37;;;;;;;20.13;16.00;;;;;;;;;;3592738;39;20432;-80
2021/08/03 05:07:04;;;;;;;17.60;15.27;;;;;;;;;;3575682;39;20417;-80
2021/08/03 05:09:31;;;;;;;23.43;13.90;;;;;;;;;;3584662;39;20408;-80
2021/08/03 05:12:03;;;;;;;21.40;15.33;;;;;;;;;;3575005;39;20820;-80
2021/08/03 05:14:29;;;;;;;20.87;15.17;;;;;;;;;;3586217;39;20412;-80
2021/08/03 05:16:55;;;;;;;17.73;14.40;;;;;;;;;;3583091;39;20421;-80
2021/08/03 05:19:23;;;;;;;16.23;14.00;;;;;;;;;;3594105;39;20496;-80
2021/08/03 05:21:49;;;;;;;16.00;14.30;;;;;;;;;;3584174;39;20408;-80
2021/08/03 05:24:15;;;;;;;17.67;13.77;;;;;;;;;;3583337;39;20544;-80
2021/08/03 05:26:41;;;;;;;20.33;15.80;;;;;;;;;;3574074;39;20451;-79
2021/08/03 05:29:08;;;;;;;18.30;15.30;;;;;;;;;;3583145;39;20430;-79
2021/08/03 05:31:35;;;;;;;27.93;16.30;;;;;;;;;;3583592;39;20396;-79
2021/08/03 05:34:03;;;;;;;22.50;16.53;;;;;;;;;;3584407;39;20411;-79
2021/08/03 05:36:31;;;;;;;18.83;14.87;;;;;;;;;;3593959;39;20388;-79
2021/08/03 05:38:57;;;;;;;20.70;15.60;;;;;;;;;;3592845;39;20417;-80
2021/08/03 05:41:24;;;;;;;19.03;15.83;;;;;;;;;;3595230;39;20421;-80
2021/08/03 05:43:50;;;;;;;18.27;15.20;;;;;;;;;;3593558;39;20451;-79
2021/08/03 05:46:17;;;;;;;17.70;12.93;;;;;;;;;;3577434;39;20868;-80
2021/08/03 05:48:43;;;;;;;24.93;13.63;;;;;;;;;;3576225;39;20408;-80
2021/08/03 05:51:09;;;;;;;16.07;13.27;;;;;;;;;;3584069;39;20407;-79
2021/08/03 05:53:36;;;;;;;19.73;15.60;;;;;;;;;;3585854;39;20738;-79
2021/08/03 05:56:02;;;;;;;19.30;14.83;;;;;;;;;;3583219;39;20502;-80
2021/08/03 05:58:28;;;;;;;15.73;13.70;;;;;;;;;;3584587;39;21243;-80
2021/08/03 06:00:54;;;;;;;14.80;13.40;;;;;;;;;;3583953;39;20782;-80
2021/08/03 06:03:20;;;;;;;17.00;14.40;;;;;;;;;;3584363;39;20442;-80
2021/08/03 06:05:46;;;;;;;14.10;12.70;;;;;;;;;;3575320;39;21225;-80
2021/08/03 06:08:14;;;;;;;15.03;13.57;;;;;;;;;;3582907;39;21155;-80
2021/08/03 06:10:41;;;;;;;17.10;15.37;;;;;;;;;;3583728;39;20464;-80
2021/08/03 06:13:12;;;;;;;17.83;14.23;;;;;;;;;;3573651;39;20557;-80
2021/08/03 06:15:39;;;;;;;16.73;15.00;;;;;;;;;;3579862;39;20392;-79
2021/08/03 06:18:13;;;;;;;15.80;14.30;;;;;;;;;;3593042;39;20401;-80
2021/08/03 06:20:42;;;;;;;15.43;12.67;;;;;;;;;;3591495;39;20868;-81
2021/08/03 06:23:12;;;;;;;14.07;12.67;;;;;;;;;;3573923;39;20546;-80
2021/08/03 06:25:40;;;;;;;15.30;12.37;;;;;;;;;;3584409;39;20467;-80
2021/08/03 06:28:08;;;;;;;15.90;12.07;;;;;;;;;;3582233;39;20417;-80
2021/08/03 06:30:38;;;;;;;17.77;13.10;;;;;;;;;;3590844;39;21131;-80
2021/08/03 06:33:06;;;;;;;16.20;12.03;;;;;;;;;;3583646;39;20434;-80
2021/08/03 06:35:32;;;;;;;15.97;11.73;;;;;;;;;;3576961;39;20436;-80
2021/08/03 06:37:58;;;;;;;14.80;12.50;;;;;;;;;;3593151;39;20392;-80
2021/08/03 06:40:27;;;;;;;14.50;12.63;;;;;;;;;;3583909;39;20691;-80
2021/08/03 06:42:59;;;;;;;12.10;10.90;;;;;;;;;;3583169;39;20467;-80
2021/08/03 06:45:29;;;;;;;11.90;10.60;;;;;;;;;;3584237;39;20439;-80
2021/08/03 06:48:11;;;;;;;10.80;9.70;;;;;;;;;;3582709;39;20465;-80
2021/08/03 06:50:42;;;;;;;14.67;10.80;;;;;;;;;;3575551;39;20431;-80
2021/08/03 06:53:10;;;;;;;10.60;9.17;;;;;;;;;;3592458;39;21688;-80
2021/08/03 06:55:40;;;;;;;13.60;9.47;;;;;;;;;;3585134;39;20388;-80
2021/08/03 06:58:10;;;;;;;10.53;9.23;;;;;;;;;;3574577;39;20404;-80
2021/08/03 07:00:37;;;;;;;14.40;10.10;;;;;;;;;;3576680;39;20558;-80
2021/08/03 07:03:04;;;;;;;13.20;9.77;;;;;;;;;;3594285;39;20458;-80
2021/08/03 07:05:32;;;;;;;14.90;9.80;;;;;;;;;;3583554;39;20456;-80
2021/08/03 07:07:58;;;;;;;10.60;8.27;;;;;;;;;;3582806;39;20441;-80
2021/08/03 07:10:25;;;;;;;17.73;9.07;;;;;;;;;;3593458;39;20412;-80
2021/08/03 07:13:32;;;;;;;10.33;9.13;;;;;;;;;;3581580;39;21138;-83
2021/08/03 07:16:04;;;;;;;12.47;9.10;;;;;;;;;;3552760;39;20422;-83
2021/08/03 07:18:46;;;;;;;15.50;8.90;;;;;;;;;;3581975;39;20837;-79
2021/08/03 07:21:37;;;;;;;13.13;8.60;;;;;;;;;;3579663;39;20517;-82
2021/08/03 07:24:34;;;;;;;9.63;8.60;;;;;;;;;;3581269;39;20433;-81
2021/08/03 07:28:02;;;;;;;;;;;;;;;;;;;;;
2021/08/03 07:30:47;;;;;;;10.57;8.00;;;;;;;;;;3533378;40;20433;-81
2021/08/03 07:33:45;;;;;;;13.70;10.17;;;;;;;;;;3525704;40;20424;-82
2021/08/03 07:36:54;;;;;;;10.43;9.30;;;;;;;;;;3526867;40;20486;-83
2021/08/03 07:39:24;;;;;;;11.80;8.30;;;;;;;;;;3525742;40;20429;-82
2021/08/03 07:45:52;;;;;;;14.90;7.80;;;;;;;;;;3525148;40;20858;-82
2021/08/03 07:49:19;;;;;;;8.43;7.63;;;;;;;;;;3462365;41;20899;-82
2021/08/03 07:52:23;;;;;;;8.60;7.80;;;;;;;;;;3456393;41;20807;-81
2021/08/03 07:55:47;;;;;;;14.57;7.23;;;;;;;;;;3442772;41;20412;-82
2021/08/03 07:59:19;;;;;;;;;;;;;;;;;;;;;
2021/08/03 08:02:35;;;;;;;6.43;5.70;;;;;;;;;;3438644;41;20453;-81
2021/08/03 08:06:10;;;;;;;8.37;7.57;;;;;;;;;;3433978;41;20433;-81
2021/08/03 08:08:46;;;;;;;7.90;6.37;;;;;;;;;;3446583;41;20456;-81
2021/08/03 08:11:23;;;;;;;9.57;7.43;;;;;;;;;;3447515;41;20436;-81
2021/08/03 08:18:37;;;;;;;10.63;6.97;;;;;;;;;;3431386;41;20520;-81
2021/08/03 08:21:20;;;;;;;6.27;5.77;;;;;;;;;;3412806;41;20741;-83
2021/08/03 08:24:48;;;;;;;9.33;6.30;;;;;;;;;;3414830;41;20912;-82
2021/08/03 08:31:46;;;;;;;8.13;6.33;;;;;;;;;;3454614;41;20517;-81
2021/08/03 08:34:22;;;;;;;7.00;5.93;;;;;;;;;;3436129;41;20474;-81
2021/08/03 08:37:05;;;;;;;8.23;6.00;;;;;;;;;;3437341;41;20453;-81
2021/08/03 08:39:49;;;;;;;7.00;5.80;;;;;;;;;;3446795;41;20971;-81
2021/08/03 08:42:47;;;;;;;7.83;5.83;;;;;;;;;;3453754;41;20430;-81
2021/08/03 08:45:33;;;;;;;11.43;6.10;;;;;;;;;;3431435;41;21102;-81
2021/08/03 08:52:12;;;;;;;10.40;5.93;;;;;;;;;;3442612;41;20437;-81
2021/08/03 08:54:59;;;;;;;6.27;5.67;;;;;;;;;;3437977;41;21201;-81
2021/08/03 08:58:00;;;;;;;7.60;6.30;;;;;;;;;;3443139;41;20408;-83
2021/08/03 09:00:48;;;;;;;9.67;7.13;;;;;;;;;;3443929;41;20862;-82
2021/08/03 09:03:37;;;;;;;6.23;5.70;;;;;;;;;;3442835;41;20508;-82
2021/08/03 09:06:45;;;;;;;;;;;;;;;;;;;;;
2021/08/03 09:09:23;;;;;;;6.50;5.90;;;;;;;;;;3473463;41;20433;-81
2021/08/03 09:12:19;;;;;;;7.70;5.50;;;;;;;;;;3484006;41;20432;-81
2021/08/03 09:15:07;;;;;;;9.00;7.10;;;;;;;;;;3484545;41;20440;-82
2021/08/03 09:17:48;;;;;;;6.93;6.23;;;;;;;;;;3484070;41;20412;-81
2021/08/03 09:20:53;;;;;;;5.70;5.10;;;;;;;;;;3483466;41;20440;-81
2021/08/03 09:23:43;;;;;;;8.73;5.50;;;;;;;;;;3517001;40;20860;-82
2021/08/03 09:26:10;;;;;;;8.07;6.23;;;;;;;;;;3510846;40;20438;-80
2021/08/03 09:28:57;;;;;;;8.67;6.33;;;;;;;;;;3531187;40;20413;-81
2021/08/03 09:31:23;;;;;;;6.70;5.63;;;;;;;;;;3530170;40;21276;-80
2021/08/03 09:33:51;;;;;;;8.50;6.30;;;;;;;;;;3529129;40;20454;-80
2021/08/03 09:36:17;;;;;;;6.10;5.53;;;;;;;;;;3530669;40;20763;-80
2021/08/03 09:38:43;;;;;;;6.13;5.53;;;;;;;;;;3538321;40;20418;-81
2021/08/03 09:41:09;;;;;;;5.87;5.10;;;;;;;;;;3546989;40;20402;-79
2021/08/03 09:43:36;;;;;;;5.43;5.03;;;;;;;;;;3540632;40;20457;-79
2021/08/03 09:46:02;;;;;;;8.57;5.40;;;;;;;;;;3531229;40;20423;-79
2021/08/03 09:48:30;;;;;;;5.47;4.90;;;;;;;;;;3554882;40;20423;-79
2021/08/03 09:51:06;;;;;;;7.70;4.27;;;;;;;;;;3559103;40;20870;-78
2021/08/03 09:53:36;;;;;;;6.33;4.23;;;;;;;;;;3558504;40;20837;-78
2021/08/03 09:56:02;;;;;;;9.93;5.43;;;;;;;;;;3558899;40;20441;-78
2021/08/03 09:58:28;;;;;;;4.87;4.47;;;;;;;;;;3550166;40;20699;-78
2021/08/03 10:00:55;;;;;;;5.80;4.57;;;;;;;;;;3558712;40;20425;-79
2021/08/03 10:03:22;;;;;;;4.30;3.83;;;;;;;;;;3550796;40;20430;-79
2021/08/03 10:05:48;;;;;;;4.90;3.57;;;;;;;;;;3569560;40;20449;-79
2021/08/03 10:08:17;;;;;;;4.53;3.93;;;;;;;;;;3561311;39;20464;-79
2021/08/03 10:10:44;;;;;;;4.17;3.83;;;;;;;;;;3569507;39;21208;-79
2021/08/03 10:13:11;;;;;;;4.10;3.00;;;;;;;;;;3570364;40;20492;-79
2021/08/03 10:15:40;;;;;;;4.57;4.17;;;;;;;;;;3561509;40;20425;-78
2021/08/03 10:18:07;;;;;;;3.77;3.33;;;;;;;;;;3571203;40;20409;-78
2021/08/03 10:20:39;;;;;;;4.00;3.60;;;;;;;;;;3578184;39;20457;-79
2021/08/03 10:23:06;;;;;;;4.07;3.67;;;;;;;;;;3569535;39;20522;-79
2021/08/03 10:25:36;;;;;;;4.70;3.70;;;;;;;;;;3574030;39;20530;-78
2021/08/03 10:28:19;;;;;;;3.93;3.37;;;;;;;;;;3590620;39;20393;-79
2021/08/03 10:30:46;;;;;;;3.73;3.30;;;;;;;;;;3590472;39;20831;-79
2021/08/03 10:33:32;;;;;;;5.13;4.60;;;;;;;;;;3582333;39;20425;-79
2021/08/03 10:35:59;;;;;;;5.50;4.47;;;;;;;;;;3538508;40;20428;-79
2021/08/03 10:38:32;;;;;;;3.93;3.63;;;;;;;;;;3530150;40;20812;-79
2021/08/03 10:41:08;;;;;;;3.50;3.13;;;;;;;;;;3535800;40;20400;-79
2021/08/03 10:43:37;;;;;;;4.50;4.10;;;;;;;;;;3521778;40;20430;-79
2021/08/03 10:46:09;;;;;;;5.63;3.80;;;;;;;;;;3534181;40;20409;-79
2021/08/03 10:48:39;;;;;;;5.97;4.30;;;;;;;;;;3538499;40;20429;-78
2021/08/03 10:51:15;;;;;;;4.73;4.43;;;;;;;;;;3538018;40;21123;-79
2021/08/03 10:53:59;;;;;;;4.10;3.80;;;;;;;;;;3521984;40;20432;-79
2021/08/03 10:56:26;;;;;;;4.37;4.07;;;;;;;;;;3529125;40;20428;-79
2021/08/03 10:59:11;;;;;;;3.80;3.50;;;;;;;;;;3530391;40;20445;-79
2021/08/03 11:01:46;;;;;;;4.23;3.17;;;;;;;;;;3529051;40;20434;-78
2021/08/03 11:04:31;;;;;;;3.40;3.10;;;;;;;;;;3537102;40;20529;-78
2021/08/03 11:07:17;;;;;;;3.53;3.23;;;;;;;;;;3521730;40;20543;-78
2021/08/03 11:09:43;;;;;;;6.27;3.10;;;;;;;;;;3527930;40;20414;-78
2021/08/03 11:12:44;;;;;;;3.77;3.40;;;;;;;;;;3541283;39;20466;-78
2021/08/03 11:15:22;;;;;;;3.20;2.77;;;;;;;;;;3536014;40;20913;-78
2021/08/03 11:17:52;;;;;;;7.40;3.70;;;;;;;;;;3531421;40;20596;-78
2021/08/03 11:20:36;;;;;;;4.67;3.90;;;;;;;;;;3539261;40;20485;-78
2021/08/03 11:23:16;;;;;;;4.53;3.97;;;;;;;;;;3530360;40;20420;-78
2021/08/03 11:25:43;;;;;;;4.07;3.40;;;;;;;;;;3529675;40;20484;-78
2021/08/03 11:28:16;;;;;;;3.20;3.00;;;;;;;;;;3530455;40;20419;-79
2021/08/03 11:30:43;;;;;;;3.53;3.23;;;;;;;;;;3537664;40;20415;-78
2021/08/03 11:33:11;;;;;;;4.03;3.63;;;;;;;;;;3536426;40;20412;-78
2021/08/03 11:35:46;;;;;;;3.57;3.27;;;;;;;;;;3529668;40;20422;-78
2021/08/03 11:38:13;;;;;;;4.60;3.70;;;;;;;;;;3529163;40;20419;-78
2021/08/03 11:40:41;;;;;;;4.03;3.27;;;;;;;;;;3529949;40;20409;-78
2021/08/03 11:43:08;;;;;;;6.03;3.53;;;;;;;;;;3530207;40;20477;-79
2021/08/03 11:45:36;;;;;;;3.80;3.40;;;;;;;;;;3522034;40;20540;-78
2021/08/03 11:48:04;;;;;;;5.10;3.30;;;;;;;;;;3530340;40;20868;-78
2021/08/03 11:50:30;;;;;;;4.70;4.07;;;;;;;;;;3545174;39;20700;-78
2021/08/03 11:53:07;;;;;;;4.20;3.80;;;;;;;;;;3581840;39;20406;-78
2021/08/03 11:55:34;;;;;;;3.63;3.33;;;;;;;;;;3574243;39;20413;-78
2021/08/03 11:58:01;;;;;;;5.13;3.70;;;;;;;;;;3581739;39;20446;-78
2021/08/03 12:00:27;;;;;;;3.93;3.53;;;;;;;;;;3590125;39;20695;-78
2021/08/03 12:02:58;;;;;;;5.30;3.93;;;;;;;;;;3580629;39;20879;-78
2021/08/03 12:05:44;;;;;;;7.20;4.13;;;;;;;;;;3572841;39;20415;-78
2021/08/03 12:08:14;;;;;;;5.30;4.80;;;;;;;;;;3579724;39;20415;-78
2021/08/03 12:10:42;;;;;;;4.30;3.90;;;;;;;;;;3570165;39;20546;-77
2021/08/03 12:13:10;;;;;;;5.83;3.40;;;;;;;;;;3585694;39;20403;-78
2021/08/03 12:15:49;;;;;;;6.27;4.50;;;;;;;;;;3589668;39;20430;-78
2021/08/03 12:18:16;;;;;;;4.10;3.70;;;;;;;;;;3592636;39;20422;-78
2021/08/03 12:20:46;;;;;;;3.70;3.40;;;;;;;;;;3581398;39;20461;-78
2021/08/03 12:23:12;;;;;;;6.83;3.80;;;;;;;;;;3579320;39;20408;-78
2021/08/03 12:25:57;;;;;;;4.87;3.50;;;;;;;;;;3584379;39;20447;-78
2021/08/03 12:28:34;;;;;;;5.43;4.90;;;;;;;;;;3581801;39;21196;-78
2021/08/03 12:31:19;;;;;;;4.97;4.50;;;;;;;;;;3582155;39;20720;-79
2021/08/03 12:33:46;;;;;;;6.10;4.57;;;;;;;;;;3583765;39;20518;-79
2021/08/03 12:36:20;;;;;;;10.20;5.50;;;;;;;;;;3575667;39;20408;-79
2021/08/03 12:39:05;;;;;;;5.20;4.70;;;;;;;;;;3583922;39;20743;-78
2021/08/03 12:41:31;;;;;;;4.87;4.47;;;;;;;;;;3583875;39;20784;-79
2021/08/03 12:44:02;;;;;;;5.60;4.80;;;;;;;;;;3582324;39;20546;-79
2021/08/03 12:46:35;;;;;;;7.30;5.30;;;;;;;;;;3583263;39;20405;-79
2021/08/03 12:49:02;;;;;;;4.77;4.37;;;;;;;;;;3583597;39;20882;-78
2021/08/03 12:51:29;;;;;;;5.33;4.83;;;;;;;;;;3583753;39;22470;-80
2021/08/03 12:54:16;;;;;;;8.50;4.83;;;;;;;;;;3575515;39;22046;-79
2021/08/03 12:56:56;;;;;;;6.20;5.60;;;;;;;;;;3583083;39;20426;-79
2021/08/03 12:59:34;;;;;;;6.50;5.30;;;;;;;;;;3572983;39;20439;-80
2021/08/03 13:02:00;;;;;;;6.40;5.80;;;;;;;;;;3592057;39;20411;-80
2021/08/03 13:04:26;;;;;;;5.93;5.33;;;;;;;;;;3582341;39;20501;-79
2021/08/03 13:06:53;;;;;;;6.77;5.40;;;;;;;;;;3584472;39;20445;-79
2021/08/03 13:09:19;;;;;;;7.03;5.37;;;;;;;;;;3582269;39;20442;-79
2021/08/03 13:11:46;;;;;;;4.77;4.43;;;;;;;;;;3582628;39;20407;-79
2021/08/03 13:14:12;;;;;;;6.23;5.67;;;;;;;;;;3582381;39;20412;-79
2021/08/03 13:16:38;;;;;;;8.57;6.60;;;;;;;;;;3584837;39;20858;-79
2021/08/03 13:19:05;;;;;;;5.97;5.47;;;;;;;;;;3575449;39;20433;-80
2021/08/03 13:21:32;;;;;;;6.57;5.93;;;;;;;;;;3582495;39;20469;-79
2021/08/03 13:23:58;;;;;;;6.60;6.00;;;;;;;;;;3583082;39;20406;-79
2021/08/03 13:26:25;;;;;;;6.67;5.93;;;;;;;;;;3582021;39;20434;-79
2021/08/03 13:28:51;;;;;;;6.83;5.63;;;;;;;;;;3591057;39;20407;-79
2021/08/03 13:31:18;;;;;;;5.23;4.83;;;;;;;;;;3581846;39;20408;-79
2021/08/03 13:33:44;;;;;;;5.40;4.60;;;;;;;;;;3572780;39;20510;-79
2021/08/03 13:36:12;;;;;;;5.47;5.07;;;;;;;;;;3573240;39;20436;-79
2021/08/03 13:38:39;;;;;;;6.00;5.40;;;;;;;;;;3584753;39;20878;-79
2021/08/03 13:41:06;;;;;;;5.90;5.30;;;;;;;;;;3581509;39;20480;-79
2021/08/03 13:43:32;;;;;;;8.03;5.20;;;;;;;;;;3581902;39;20420;-79
2021/08/03 13:45:59;;;;;;;5.30;4.90;;;;;;;;;;3581088;39;20538;-79
2021/08/03 13:48:26;;;;;;;7.93;5.50;;;;;;;;;;3572190;39;20816;-79
2021/08/03 13:50:52;;;;;;;5.17;4.70;;;;;;;;;;3572361;39;20448;-78
2021/08/03 13:53:19;;;;;;;7.70;5.93;;;;;;;;;;3582012;39;20428;-79
2021/08/03 13:55:45;;;;;;;5.70;5.20;;;;;;;;;;3573682;39;20412;-79
2021/08/03 13:58:11;;;;;;;5.33;4.90;;;;;;;;;;3581311;39;20447;-79
2021/08/03 14:00:37;;;;;;;4.60;4.20;;;;;;;;;;3582122;39;20399;-79
2021/08/03 14:03:03;;;;;;;5.87;4.93;;;;;;;;;;3572006;39;20539;-79
2021/08/03 14:05:29;;;;;;;4.93;4.53;;;;;;;;;;3572624;39;20807;-79
2021/08/03 14:07:56;;;;;;;5.53;5.03;;;;;;;;;;3582044;39;20421;-79
2021/08/03 14:10:22;;;;;;;6.40;4.97;;;;;;;;;;3581429;39;20404;-78
2021/08/03 14:12:48;;;;;;;8.30;5.63;;;;;;;;;;3569252;39;20403;-79
2021/08/03 14:15:14;;;;;;;5.20;4.70;;;;;;;;;;3570489;39;20427;-79
2021/08/03 14:17:40;;;;;;;5.17;4.77;;;;;;;;;;3572148;39;20430;-79
2021/08/03 14:20:08;;;;;;;8.70;5.73;;;;;;;;;;3574224;39;20857;-79
2021/08/03 14:22:34;;;;;;;7.00;5.43;;;;;;;;;;3579989;39;20408;-79
2021/08/03 14:25:01;;;;;;;7.07;6.37;;;;;;;;;;3582068;39;20445;-79
2021/08/03 14:27:27;;;;;;;8.50;6.07;;;;;;;;;;3570172;39;20541;-79
2021/08/03 14:29:53;;;;;;;8.47;6.50;;;;;;;;;;3582444;39;20420;-79
2021/08/03 14:32:19;;;;;;;8.80;6.40;;;;;;;;;;3570209;39;20419;-79
2021/08/03 14:34:45;;;;;;;7.00;5.67;;;;;;;;;;3573793;39;20537;-79
2021/08/03 14:37:12;;;;;;;5.77;5.27;;;;;;;;;;3580148;39;20465;-79
2021/08/03 14:39:38;;;;;;;6.77;6.17;;;;;;;;;;3578178;39;20781;-79
2021/08/03 14:42:04;;;;;;;9.07;6.00;;;;;;;;;;3581339;39;20416;-79
2021/08/03 14:44:31;;;;;;;7.73;7.03;;;;;;;;;;3580042;39;20396;-78
2021/08/03 14:46:57;;;;;;;6.63;5.97;;;;;;;;;;3574991;39;20421;-78
2021/08/03 14:49:23;;;;;;;8.10;6.33;;;;;;;;;;3577823;39;20415;-79
2021/08/03 14:51:49;;;;;;;6.47;5.97;;;;;;;;;;3588037;39;20416;-78
2021/08/03 14:54:17;;;;;;;7.57;6.93;;;;;;;;;;3582538;39;20411;-79
2021/08/03 14:56:44;;;;;;;7.53;6.93;;;;;;;;;;3572165;39;20427;-78
2021/08/03 14:59:12;;;;;;;10.13;6.53;;;;;;;;;;3580435;39;20494;-79
2021/08/03 15:01:40;;;;;;;11.73;8.23;;;;;;;;;;3571644;39;20446;-79
2021/08/03 15:04:07;;;;;;;5.77;5.20;;;;;;;;;;3580502;39;20520;-79
2021/08/03 15:06:33;;;;;;;6.80;6.13;;;;;;;;;;3576276;39;20729;-79
2021/08/03 15:08:59;;;;;;;5.10;4.60;;;;;;;;;;3581051;39;21017;-80
2021/08/03 15:11:27;;;;;;;5.80;5.30;;;;;;;;;;3571472;39;20400;-80
2021/08/03 15:13:53;;;;;;;6.47;5.97;;;;;;;;;;3571062;39;20439;-78
2021/08/03 15:16:22;;;;;;;7.80;6.10;;;;;;;;;;3580770;39;20474;-78
2021/08/03 15:18:48;;;;;;;6.40;5.80;;;;;;;;;;3579687;39;20412;-77
2021/08/03 15:21:14;;;;;;;6.30;5.70;;;;;;;;;;3571389;39;20414;-78